Time;durP1;ratioP1;P1;durP2;ratioP2;P2;SDS_P1;SDS_P2;PMS_P1;PMS_P2;Temp;Humidity;BMP_temperature;BMP_pressure;BME280_temperature;BME280_humidity;BME280_pressure;Samples;Min_cycle;Max_cycle;Signal;HPM_P1;HPM_P2
2022/10/09 00:00:47;;;;;;;6.72;2.60;;;;;;;;;;5031899;28;20064;-41
2022/10/09 00:03:13;;;;;;;4.97;2.10;;;;;;;;;;5034908;28;20028;-41
2022/10/09 00:05:39;;;;;;;3.97;1.77;;;;;;;;;;5035010;28;20040;-41
2022/10/09 00:08:05;;;;;;;2.35;1.90;;;;;;;;;;5034986;28;20372;-42
2022/10/09 00:10:30;;;;;;;2.83;1.98;;;;;;;;;;5035068;28;20030;-41
2022/10/09 00:12:56;;;;;;;1.55;1.45;;;;;;;;;;5017463;28;20522;-41
2022/10/09 00:15:21;;;;;;;2.72;2.47;;;;;;;;;;5034634;28;20037;-40
2022/10/09 00:17:47;;;;;;;5.40;2.83;;;;;;;;;;5035000;28;20108;-41
2022/10/09 00:20:12;;;;;;;6.03;2.28;;;;;;;;;;5034871;28;20037;-41
2022/10/09 00:22:38;;;;;;;5.97;2.05;;;;;;;;;;5034928;28;20017;-41
2022/10/09 00:25:04;;;;;;;3.67;2.28;;;;;;;;;;5034584;28;20061;-41
2022/10/09 00:27:30;;;;;;;8.48;2.20;;;;;;;;;;5034700;28;20049;-41
2022/10/09 00:29:55;;;;;;;6.78;2.50;;;;;;;;;;5033309;28;20409;-41
2022/10/09 00:32:20;;;;;;;3.17;1.80;;;;;;;;;;5034389;28;20018;-41
2022/10/09 00:34:46;;;;;;;2.40;1.95;;;;;;;;;;5034317;28;20069;-45
2022/10/09 00:37:11;;;;;;;7.55;2.58;;;;;;;;;;5032956;28;20081;-41
2022/10/09 00:39:36;;;;;;;2.50;1.58;;;;;;;;;;5034314;28;20392;-41
2022/10/09 00:42:03;;;;;;;2.38;1.83;;;;;;;;;;5034420;28;20029;-41
2022/10/09 00:44:47;;;;;;;5.10;2.03;;;;;;;;;;5034469;28;20112;-41
2022/10/09 00:47:23;;;;;;;3.90;2.50;;;;;;;;;;5034370;28;20041;-41
2022/10/09 00:49:51;;;;;;;2.22;1.75;;;;;;;;;;5034229;28;20044;-41
2022/10/09 00:52:17;;;;;;;2.55;2.25;;;;;;;;;;5034400;28;20088;-41
2022/10/09 00:54:42;;;;;;;3.60;2.17;;;;;;;;;;5034098;28;20184;-41
2022/10/09 00:57:08;;;;;;;3.25;2.33;;;;;;;;;;5034039;28;20511;-41
2022/10/09 00:59:34;;;;;;;4.60;2.38;;;;;;;;;;5034001;28;20044;-41
2022/10/09 01:01:59;;;;;;;1.80;1.70;;;;;;;;;;5034200;28;20013;-41
2022/10/09 01:04:25;;;;;;;3.22;2.33;;;;;;;;;;5034093;28;20116;-41
2022/10/09 01:06:56;;;;;;;2.95;2.50;;;;;;;;;;5034163;28;20102;-41
2022/10/09 01:09:23;;;;;;;5.13;2.63;;;;;;;;;;5033762;28;20385;-41
2022/10/09 01:11:55;;;;;;;17.02;2.70;;;;;;;;;;5033528;28;20040;-41
2022/10/09 01:14:26;;;;;;;4.18;2.15;;;;;;;;;;5033510;28;20033;-41
2022/10/09 01:16:51;;;;;;;2.67;1.60;;;;;;;;;;5034021;28;20056;-41
2022/10/09 01:19:22;;;;;;;2.67;1.80;;;;;;;;;;5033655;28;20452;-41
2022/10/09 01:22:03;;;;;;;2.55;1.65;;;;;;;;;;5033574;28;20392;-41
2022/10/09 01:24:39;;;;;;;5.57;2.50;;;;;;;;;;5033672;28;20159;-44
2022/10/09 01:27:05;;;;;;;4.72;2.05;;;;;;;;;;5033755;28;20405;-41
2022/10/09 01:29:32;;;;;;;4.53;2.20;;;;;;;;;;5033346;28;20132;-41
2022/10/09 01:31:58;;;;;;;2.55;2.35;;;;;;;;;;5015631;28;20052;-41
2022/10/09 01:34:25;;;;;;;3.45;2.03;;;;;;;;;;5033264;28;20032;-41
2022/10/09 01:36:51;;;;;;;3.63;2.72;;;;;;;;;;5033094;28;20046;-41
2022/10/09 01:39:18;;;;;;;2.42;1.55;;;;;;;;;;5033484;28;20117;-41
2022/10/09 01:41:45;;;;;;;2.72;2.13;;;;;;;;;;5033553;28;20044;-41
2022/10/09 01:44:21;;;;;;;3.92;2.85;;;;;;;;;;5032998;28;20021;-41
2022/10/09 01:46:47;;;;;;;5.30;2.47;;;;;;;;;;5033145;28;20117;-46
2022/10/09 01:49:12;;;;;;;5.63;2.88;;;;;;;;;;5033007;28;20151;-41
2022/10/09 01:51:58;;;;;;;3.35;2.20;;;;;;;;;;5032951;28;20026;-40
2022/10/09 01:54:33;;;;;;;3.97;2.15;;;;;;;;;;4982483;28;20061;-41
2022/10/09 01:57:01;;;;;;;3.03;1.73;;;;;;;;;;5033053;28;20025;-42
2022/10/09 01:59:27;;;;;;;3.38;1.85;;;;;;;;;;5032810;28;20037;-41
2022/10/09 02:01:52;;;;;;;5.40;1.98;;;;;;;;;;5032899;28;20396;-41
2022/10/09 02:04:18;;;;;;;3.35;2.45;;;;;;;;;;5032851;28;20046;-41
2022/10/09 02:06:44;;;;;;;3.88;1.60;;;;;;;;;;5032794;28;20035;-41
2022/10/09 02:09:12;;;;;;;2.88;2.40;;;;;;;;;;5032742;28;20024;-41
2022/10/09 02:11:39;;;;;;;3.22;1.80;;;;;;;;;;5032587;28;20025;-41
2022/10/09 02:14:04;;;;;;;2.63;2.08;;;;;;;;;;5032504;28;20113;-41
2022/10/09 02:16:37;;;;;;;3.28;2.33;;;;;;;;;;5032487;28;20108;-41
2022/10/09 02:19:21;;;;;;;3.33;2.30;;;;;;;;;;5032794;28;20125;-41
2022/10/09 02:21:56;;;;;;;3.85;2.22;;;;;;;;;;5032443;28;20026;-41
2022/10/09 02:24:22;;;;;;;4.05;2.40;;;;;;;;;;5013748;28;20045;-41
2022/10/09 02:26:48;;;;;;;4.03;2.53;;;;;;;;;;5032665;28;20019;-41
2022/10/09 02:29:14;;;;;;;7.72;2.45;;;;;;;;;;5032363;28;20113;-41
2022/10/09 02:31:40;;;;;;;2.00;1.73;;;;;;;;;;5032255;28;20068;-41
2022/10/09 02:34:07;;;;;;;3.72;3.30;;;;;;;;;;5032082;28;20091;-41
2022/10/09 02:36:32;;;;;;;1.83;1.67;;;;;;;;;;5031951;28;20049;-41
2022/10/09 02:38:58;;;;;;;2.45;2.13;;;;;;;;;;5032260;28;20032;-41
2022/10/09 02:41:24;;;;;;;2.88;1.80;;;;;;;;;;5032294;28;20398;-41
2022/10/09 02:43:49;;;;;;;3.75;1.77;;;;;;;;;;5032075;28;20079;-41
2022/10/09 02:46:15;;;;;;;3.13;2.20;;;;;;;;;;5031972;28;20033;-40
2022/10/09 02:48:41;;;;;;;2.22;1.77;;;;;;;;;;5032222;28;20392;-41
2022/10/09 02:51:06;;;;;;;4.53;2.13;;;;;;;;;;5032191;28;20019;-41
2022/10/09 02:53:32;;;;;;;2.00;1.83;;;;;;;;;;5031813;28;20423;-41
2022/10/09 02:55:57;;;;;;;5.63;2.10;;;;;;;;;;5031688;28;20434;-41
2022/10/09 02:58:22;;;;;;;6.65;2.35;;;;;;;;;;5032012;28;20040;-41
2022/10/09 03:00:48;;;;;;;2.78;1.83;;;;;;;;;;5031897;28;20491;-41
2022/10/09 03:03:14;;;;;;;6.28;2.00;;;;;;;;;;5031743;28;20052;-41
2022/10/09 03:05:39;;;;;;;2.58;1.95;;;;;;;;;;5031777;28;20480;-41
2022/10/09 03:08:05;;;;;;;3.78;2.03;;;;;;;;;;5031634;28;20045;-41
2022/10/09 03:10:31;;;;;;;2.47;1.80;;;;;;;;;;5031764;28;20028;-41
2022/10/09 03:12:57;;;;;;;9.57;2.28;;;;;;;;;;5031538;28;20526;-41
2022/10/09 03:15:22;;;;;;;1.60;1.48;;;;;;;;;;5031714;28;20077;-41
2022/10/09 03:17:48;;;;;;;3.10;1.75;;;;;;;;;;5031495;28;20041;-41
2022/10/09 03:20:13;;;;;;;2.78;2.00;;;;;;;;;;5031958;28;20022;-41
2022/10/09 03:22:38;;;;;;;2.90;2.00;;;;;;;;;;5031436;28;20041;-41
2022/10/09 03:25:04;;;;;;;4.35;2.22;;;;;;;;;;5031655;28;20029;-41
2022/10/09 03:27:30;;;;;;;4.70;2.22;;;;;;;;;;5031342;28;20056;-41
2022/10/09 03:29:57;;;;;;;2.22;1.88;;;;;;;;;;5031333;28;20025;-42
2022/10/09 03:32:22;;;;;;;2.97;1.65;;;;;;;;;;5031554;28;20061;-41
2022/10/09 03:34:48;;;;;;;5.85;2.22;;;;;;;;;;5031072;28;20087;-41
2022/10/09 03:37:13;;;;;;;3.13;1.90;;;;;;;;;;5010058;28;20587;-41
2022/10/09 03:39:38;;;;;;;2.92;1.80;;;;;;;;;;5011660;28;20040;-41
2022/10/09 03:42:04;;;;;;;3.25;1.83;;;;;;;;;;5011882;28;20036;-42
2022/10/09 03:44:29;;;;;;;5.32;2.38;;;;;;;;;;5011443;28;20373;-41
2022/10/09 03:46:54;;;;;;;4.40;1.70;;;;;;;;;;5011546;28;20033;-41
2022/10/09 03:49:20;;;;;;;3.33;2.22;;;;;;;;;;5011415;28;20022;-41
2022/10/09 03:51:45;;;;;;;1.83;1.63;;;;;;;;;;5011484;28;20042;-41
2022/10/09 03:54:11;;;;;;;4.00;2.42;;;;;;;;;;5011690;28;20014;-41
2022/10/09 03:56:36;;;;;;;9.57;2.08;;;;;;;;;;5011655;28;20306;-41
2022/10/09 03:59:04;;;;;;;2.78;1.80;;;;;;;;;;5011718;28;20387;-41
2022/10/09 04:01:29;;;;;;;2.80;1.90;;;;;;;;;;5011312;28;20038;-41
2022/10/09 04:03:55;;;;;;;3.70;2.45;;;;;;;;;;5011622;28;20029;-41
2022/10/09 04:06:20;;;;;;;2.90;1.92;;;;;;;;;;5011549;28;20029;-41
2022/10/09 04:08:46;;;;;;;5.43;2.30;;;;;;;;;;5026488;28;20438;-41
2022/10/09 04:11:11;;;;;;;3.25;1.73;;;;;;;;;;5011448;28;20041;-41
2022/10/09 04:13:36;;;;;;;3.97;2.53;;;;;;;;;;5011412;28;20093;-41
2022/10/09 04:16:02;;;;;;;6.15;2.35;;;;;;;;;;5011181;28;20520;-41
2022/10/09 04:18:27;;;;;;;4.18;2.03;;;;;;;;;;5011381;28;20050;-41
2022/10/09 04:20:54;;;;;;;4.32;2.75;;;;;;;;;;5011422;28;20460;-41
2022/10/09 04:23:21;;;;;;;4.45;1.92;;;;;;;;;;5011149;28;20050;-41
2022/10/09 04:25:46;;;;;;;13.70;3.00;;;;;;;;;;5011222;28;20026;-41
2022/10/09 04:28:12;;;;;;;7.15;2.28;;;;;;;;;;5011395;28;20354;-41
2022/10/09 04:30:37;;;;;;;3.10;2.20;;;;;;;;;;5011114;28;20026;-40
2022/10/09 04:33:03;;;;;;;2.90;2.13;;;;;;;;;;5011389;28;20484;-41
2022/10/09 04:35:28;;;;;;;6.03;1.98;;;;;;;;;;5011162;28;20520;-41
2022/10/09 04:37:53;;;;;;;2.63;2.25;;;;;;;;;;5028448;28;20173;-41
2022/10/09 04:40:19;;;;;;;4.72;1.85;;;;;;;;;;5030923;28;20056;-41
2022/10/09 04:42:44;;;;;;;4.40;2.47;;;;;;;;;;5030559;28;20040;-41
2022/10/09 04:45:10;;;;;;;3.50;2.00;;;;;;;;;;5030653;28;20132;-41
2022/10/09 04:47:35;;;;;;;2.30;1.95;;;;;;;;;;5032528;28;20021;-41
2022/10/09 04:50:01;;;;;;;3.33;2.55;;;;;;;;;;5034202;28;20029;-41
2022/10/09 04:52:26;;;;;;;6.82;2.05;;;;;;;;;;5034117;28;20029;-41
2022/10/09 04:54:51;;;;;;;2.95;2.15;;;;;;;;;;5034065;28;20055;-41
2022/10/09 04:57:17;;;;;;;3.75;2.80;;;;;;;;;;5033979;28;20013;-41
2022/10/09 04:59:42;;;;;;;2.72;2.03;;;;;;;;;;5016326;28;20041;-42
2022/10/09 05:02:07;;;;;;;2.28;1.98;;;;;;;;;;5034227;28;20423;-41
2022/10/09 05:04:33;;;;;;;5.18;3.03;;;;;;;;;;5033781;28;20112;-41
2022/10/09 05:06:58;;;;;;;3.58;2.58;;;;;;;;;;5034010;28;20075;-41
2022/10/09 05:09:24;;;;;;;3.53;2.03;;;;;;;;;;5033788;28;20025;-41
2022/10/09 05:11:49;;;;;;;5.15;2.42;;;;;;;;;;5033741;28;20041;-41
2022/10/09 05:14:14;;;;;;;29.83;2.95;;;;;;;;;;5033520;28;20167;-41
2022/10/09 05:16:40;;;;;;;3.53;2.33;;;;;;;;;;5033712;28;20018;-41
2022/10/09 05:19:05;;;;;;;5.75;2.78;;;;;;;;;;5033973;28;20103;-41
2022/10/09 05:21:31;;;;;;;3.80;2.70;;;;;;;;;;5033464;28;20029;-41
2022/10/09 05:23:57;;;;;;;3.78;2.85;;;;;;;;;;5032251;28;20040;-42
2022/10/09 05:26:23;;;;;;;3.50;2.38;;;;;;;;;;5033495;28;20044;-41
2022/10/09 05:28:49;;;;;;;2.90;2.42;;;;;;;;;;5033411;28;20476;-43
2022/10/09 05:31:19;;;;;;;2.42;1.85;;;;;;;;;;5033371;28;20017;-41
2022/10/09 05:33:45;;;;;;;5.85;2.95;;;;;;;;;;5033271;28;20033;-41
2022/10/09 05:36:10;;;;;;;3.80;2.88;;;;;;;;;;5033170;28;20063;-41
2022/10/09 05:38:36;;;;;;;5.78;2.33;;;;;;;;;;5033674;28;20033;-41
2022/10/09 05:41:03;;;;;;;3.53;3.03;;;;;;;;;;5033213;28;20120;-41
2022/10/09 05:43:30;;;;;;;2.88;2.53;;;;;;;;;;5033115;28;20073;-41
2022/10/09 05:46:03;;;;;;;5.05;3.28;;;;;;;;;;5033102;28;20029;-40
2022/10/09 05:48:28;;;;;;;4.30;3.05;;;;;;;;;;5033120;28;20030;-41
2022/10/09 05:50:53;;;;;;;6.70;3.08;;;;;;;;;;5033052;28;20036;-41
2022/10/09 05:53:18;;;;;;;4.78;2.92;;;;;;;;;;5015494;28;20136;-41
2022/10/09 05:55:44;;;;;;;4.40;3.50;;;;;;;;;;5032984;28;20033;-41
2022/10/09 05:58:09;;;;;;;4.50;3.15;;;;;;;;;;5032865;28;20057;-41
2022/10/09 06:00:35;;;;;;;4.57;3.03;;;;;;;;;;5032860;28;20021;-41
2022/10/09 06:03:01;;;;;;;4.07;2.85;;;;;;;;;;5032794;28;20057;-41
2022/10/09 06:05:27;;;;;;;4.57;3.25;;;;;;;;;;5031519;28;20449;-41
2022/10/09 06:07:52;;;;;;;4.57;3.33;;;;;;;;;;5032717;28;20060;-41
2022/10/09 06:10:18;;;;;;;5.00;3.35;;;;;;;;;;5032648;28;20105;-41
2022/10/09 06:12:43;;;;;;;5.05;3.83;;;;;;;;;;5032963;28;20037;-41
2022/10/09 06:15:09;;;;;;;7.97;3.58;;;;;;;;;;5032490;28;20112;-41
2022/10/09 06:17:35;;;;;;;6.13;3.30;;;;;;;;;;5032582;28;20030;-41
2022/10/09 06:20:00;;;;;;;8.35;3.50;;;;;;;;;;5032561;28;20047;-41
2022/10/09 06:22:25;;;;;;;4.68;2.95;;;;;;;;;;5032391;28;20036;-41
2022/10/09 06:24:51;;;;;;;6.18;4.05;;;;;;;;;;5032477;28;20412;-41
2022/10/09 06:27:17;;;;;;;5.65;3.75;;;;;;;;;;5032343;28;20079;-40
2022/10/09 06:29:42;;;;;;;4.75;3.00;;;;;;;;;;5032362;28;20025;-41
2022/10/09 06:32:08;;;;;;;5.18;3.72;;;;;;;;;;5032310;28;20029;-40
2022/10/09 06:34:33;;;;;;;5.30;2.90;;;;;;;;;;5032003;28;20093;-42
2022/10/09 06:36:59;;;;;;;6.70;4.53;;;;;;;;;;5014326;28;20073;-40
2022/10/09 06:39:25;;;;;;;5.22;3.22;;;;;;;;;;5032176;28;20026;-41
2022/10/09 06:41:51;;;;;;;4.25;3.70;;;;;;;;;;5032400;28;20511;-41
2022/10/09 06:44:36;;;;;;;6.93;3.58;;;;;;;;;;5032295;28;20052;-40
2022/10/09 06:47:02;;;;;;;3.65;2.83;;;;;;;;;;5031982;28;20037;-41
2022/10/09 06:49:27;;;;;;;3.38;2.83;;;;;;;;;;5031879;28;20096;-42
2022/10/09 06:51:53;;;;;;;4.80;3.33;;;;;;;;;;5014441;28;20037;-41
2022/10/09 06:54:18;;;;;;;4.05;2.40;;;;;;;;;;5031987;28;20097;-40
2022/10/09 06:56:43;;;;;;;5.53;3.83;;;;;;;;;;5032087;28;20025;-41
2022/10/09 06:59:09;;;;;;;5.50;3.88;;;;;;;;;;5031892;28;20021;-42
2022/10/09 07:01:35;;;;;;;4.03;3.00;;;;;;;;;;5031580;28;20071;-41
2022/10/09 07:04:08;;;;;;;6.05;3.67;;;;;;;;;;5031618;28;20022;-42
2022/10/09 07:06:37;;;;;;;5.68;4.68;;;;;;;;;;5031628;28;20033;-41
2022/10/09 07:09:03;;;;;;;4.85;2.88;;;;;;;;;;5031731;28;20025;-41
2022/10/09 07:11:31;;;;;;;3.10;2.65;;;;;;;;;;5031125;28;20041;-41
2022/10/09 07:13:57;;;;;;;4.45;3.15;;;;;;;;;;5031855;28;20100;-41
2022/10/09 07:16:24;;;;;;;5.30;3.35;;;;;;;;;;5031362;28;20095;-41
2022/10/09 07:18:50;;;;;;;5.50;3.15;;;;;;;;;;5031443;28;20026;-44
2022/10/09 07:21:15;;;;;;;4.80;3.90;;;;;;;;;;5031457;28;20044;-41
2022/10/09 07:23:41;;;;;;;7.65;4.05;;;;;;;;;;5031482;28;20052;-41
2022/10/09 07:26:18;;;;;;;2.92;2.28;;;;;;;;;;5031650;28;20496;-41
2022/10/09 07:28:44;;;;;;;4.95;3.22;;;;;;;;;;5031467;28;20040;-41
2022/10/09 07:31:10;;;;;;;6.78;3.40;;;;;;;;;;5031493;28;20030;-41
2022/10/09 07:33:35;;;;;;;6.07;3.03;;;;;;;;;;5031186;28;20033;-40
2022/10/09 07:36:01;;;;;;;5.72;3.55;;;;;;;;;;5031066;28;20061;-41
2022/10/09 07:38:27;;;;;;;8.38;3.55;;;;;;;;;;5031307;28;20484;-41
2022/10/09 07:40:52;;;;;;;20.52;4.00;;;;;;;;;;5031263;28;20037;-41
2022/10/09 07:43:19;;;;;;;5.10;3.55;;;;;;;;;;5031182;28;20502;-41
2022/10/09 07:45:45;;;;;;;4.88;3.38;;;;;;;;;;5031502;28;20053;-41
2022/10/09 07:48:10;;;;;;;5.95;3.92;;;;;;;;;;5031169;28;20501;-41
2022/10/09 07:50:35;;;;;;;4.15;3.28;;;;;;;;;;5031087;28;20029;-41
2022/10/09 07:53:01;;;;;;;3.20;2.88;;;;;;;;;;5030174;28;20029;-41
2022/10/09 07:55:26;;;;;;;5.32;3.47;;;;;;;;;;5031149;28;20025;-45
2022/10/09 07:57:51;;;;;;;7.53;4.43;;;;;;;;;;5031150;28;20064;-41
2022/10/09 08:00:17;;;;;;;5.43;3.20;;;;;;;;;;5030969;28;20057;-41
2022/10/09 08:02:43;;;;;;;5.10;4.05;;;;;;;;;;5031281;28;20108;-41
2022/10/09 08:05:08;;;;;;;5.90;3.50;;;;;;;;;;5031160;28;20387;-41
2022/10/09 08:07:34;;;;;;;5.65;3.28;;;;;;;;;;5013263;28;20057;-41
2022/10/09 08:09:59;;;;;;;3.90;3.33;;;;;;;;;;5031364;28;20026;-41
2022/10/09 08:12:24;;;;;;;4.53;3.70;;;;;;;;;;5030927;28;20060;-41
2022/10/09 08:14:50;;;;;;;4.85;3.88;;;;;;;;;;5030963;28;20033;-41
2022/10/09 08:17:15;;;;;;;5.22;3.38;;;;;;;;;;5031228;28;20048;-41
2022/10/09 08:19:41;;;;;;;4.32;2.75;;;;;;;;;;5031269;28;20044;-41
2022/10/09 08:22:07;;;;;;;4.07;3.13;;;;;;;;;;5032189;28;20103;-41
2022/10/09 08:24:32;;;;;;;8.02;4.72;;;;;;;;;;5034803;28;20051;-41
2022/10/09 08:26:58;;;;;;;6.43;3.38;;;;;;;;;;5034958;28;20033;-41
2022/10/09 08:29:23;;;;;;;5.70;3.58;;;;;;;;;;5034792;28;20024;-41
2022/10/09 08:31:50;;;;;;;3.88;2.90;;;;;;;;;;5034598;28;20500;-41
2022/10/09 08:34:16;;;;;;;4.57;2.72;;;;;;;;;;5034737;28;20025;-41
2022/10/09 08:36:41;;;;;;;4.13;2.88;;;;;;;;;;5034267;28;20546;-41
2022/10/09 08:39:07;;;;;;;5.55;2.83;;;;;;;;;;5034501;28;20076;-41
2022/10/09 08:41:46;;;;;;;6.80;3.45;;;;;;;;;;5034662;28;20527;-42
2022/10/09 08:44:12;;;;;;;3.47;1.92;;;;;;;;;;5034373;28;20491;-41
2022/10/09 08:46:46;;;;;;;4.57;4.07;;;;;;;;;;5034197;28;20021;-41
2022/10/09 08:49:33;;;;;;;7.32;3.42;;;;;;;;;;5034197;28;20056;-41
2022/10/09 08:52:04;;;;;;;5.25;3.13;;;;;;;;;;5034160;28;20034;-41
2022/10/09 08:54:32;;;;;;;6.45;4.13;;;;;;;;;;5034239;28;20034;-41
2022/10/09 08:56:59;;;;;;;5.05;3.40;;;;;;;;;;5034394;28;20025;-41
2022/10/09 08:59:25;;;;;;;5.53;2.88;;;;;;;;;;5034229;28;20029;-41
2022/10/09 09:01:59;;;;;;;6.28;3.88;;;;;;;;;;5034126;28;20071;-41
2022/10/09 09:04:30;;;;;;;5.05;2.78;;;;;;;;;;5033846;28;20025;-41
2022/10/09 09:07:02;;;;;;;8.10;3.90;;;;;;;;;;5033992;28;20082;-41
2022/10/09 09:09:33;;;;;;;5.80;3.95;;;;;;;;;;5034085;28;20380;-41
2022/10/09 09:12:02;;;;;;;7.28;4.00;;;;;;;;;;5033848;28;20468;-41
2022/10/09 09:14:34;;;;;;;3.67;2.60;;;;;;;;;;5033879;28;20038;-40
2022/10/09 09:17:02;;;;;;;6.43;2.85;;;;;;;;;;5033769;28;20037;-41
2022/10/09 09:19:46;;;;;;;4.13;3.40;;;;;;;;;;5033552;28;20009;-41
2022/10/09 09:22:13;;;;;;;6.55;3.83;;;;;;;;;;5033729;28;20548;-41
2022/10/09 09:24:41;;;;;;;4.60;3.10;;;;;;;;;;5033771;28;20100;-41
2022/10/09 09:27:12;;;;;;;5.97;3.85;;;;;;;;;;5033515;28;20033;-41
2022/10/09 09:29:41;;;;;;;8.43;3.45;;;;;;;;;;5033391;28;20076;-41
2022/10/09 09:32:11;;;;;;;5.25;4.25;;;;;;;;;;5033564;28;20370;-41
2022/10/09 09:34:38;;;;;;;7.95;3.38;;;;;;;;;;5033311;28;20126;-41
2022/10/09 09:37:04;;;;;;;2.25;2.10;;;;;;;;;;5033267;28;20049;-40
2022/10/09 09:39:33;;;;;;;6.00;3.20;;;;;;;;;;5033281;28;20112;-41
2022/10/09 09:42:01;;;;;;;3.95;2.88;;;;;;;;;;5033156;28;20431;-40
2022/10/09 09:44:28;;;;;;;6.40;2.70;;;;;;;;;;5033154;28;20041;-40
2022/10/09 09:46:53;;;;;;;8.68;4.45;;;;;;;;;;5033428;28;20025;-41
2022/10/09 09:49:20;;;;;;;4.15;2.97;;;;;;;;;;5033323;28;20071;-41
2022/10/09 09:51:47;;;;;;;3.08;2.15;;;;;;;;;;5033153;28;20041;-41
2022/10/09 09:54:17;;;;;;;2.58;1.85;;;;;;;;;;5033049;28;20092;-41
2022/10/09 09:56:44;;;;;;;6.13;2.88;;;;;;;;;;5033053;28;20050;-41
2022/10/09 09:59:24;;;;;;;3.45;3.05;;;;;;;;;;5033246;28;20033;-41
2022/10/09 10:01:58;;;;;;;2.60;2.13;;;;;;;;;;5033172;28;20033;-41
2022/10/09 10:04:27;;;;;;;7.07;2.58;;;;;;;;;;5032751;28;20037;-40
2022/10/09 10:06:52;;;;;;;3.75;2.58;;;;;;;;;;5032899;28;20021;-41
2022/10/09 10:09:18;;;;;;;4.40;2.80;;;;;;;;;;5032636;28;20104;-41
2022/10/09 10:11:47;;;;;;;3.55;2.35;;;;;;;;;;5032739;28;20018;-44
2022/10/09 10:14:13;;;;;;;4.88;2.60;;;;;;;;;;5032661;28;20128;-40
2022/10/09 10:16:39;;;;;;;5.88;3.17;;;;;;;;;;5032733;28;20032;-42
2022/10/09 10:19:05;;;;;;;3.88;2.60;;;;;;;;;;5032678;28;20640;-41
2022/10/09 10:21:45;;;;;;;2.38;1.90;;;;;;;;;;5032486;28;20042;-41
2022/10/09 10:24:12;;;;;;;4.10;2.33;;;;;;;;;;5014697;28;20021;-41
2022/10/09 10:26:40;;;;;;;2.90;1.70;;;;;;;;;;5032313;28;20484;-41
2022/10/09 10:29:13;;;;;;;2.20;1.30;;;;;;;;;;5032420;28;20558;-41
2022/10/09 10:31:57;;;;;;;1.60;1.50;;;;;;;;;;5032166;28;20037;-40
2022/10/09 10:34:28;;;;;;;2.83;2.13;;;;;;;;;;5032061;28;20037;-41
2022/10/09 10:36:58;;;;;;;4.53;2.30;;;;;;;;;;5032149;28;20053;-41
2022/10/09 10:39:27;;;;;;;1.95;1.73;;;;;;;;;;5032122;28;20072;-41
2022/10/09 10:41:56;;;;;;;2.85;1.95;;;;;;;;;;5032503;28;20029;-41
2022/10/09 10:44:30;;;;;;;2.63;1.85;;;;;;;;;;5031424;28;20026;-40
2022/10/09 10:47:02;;;;;;;3.33;2.13;;;;;;;;;;5032104;28;20097;-41
2022/10/09 10:49:28;;;;;;;5.60;3.05;;;;;;;;;;5032254;28;20033;-41
2022/10/09 10:52:12;;;;;;;3.92;1.50;;;;;;;;;;5031982;28;20720;-42
2022/10/09 10:54:39;;;;;;;2.05;1.83;;;;;;;;;;5031782;28;20079;-41
2022/10/09 10:57:08;;;;;;;1.15;1.02;;;;;;;;;;5031985;28;20029;-41
2022/10/09 10:59:43;;;;;;;1.52;1.05;;;;;;;;;;5031669;28;20509;-41
2022/10/09 11:02:08;;;;;;;6.72;1.70;;;;;;;;;;5032000;28;20036;-41
2022/10/09 11:04:46;;;;;;;1.75;1.52;;;;;;;;;;5031728;28;20017;-41
2022/10/09 11:07:17;;;;;;;2.33;2.03;;;;;;;;;;5014078;28;20431;-41
2022/10/09 11:10:08;;;;;;;2.45;2.00;;;;;;;;;;5031749;28;20050;-41
2022/10/09 11:12:39;;;;;;;1.83;1.33;;;;;;;;;;5031497;28;20064;-41
2022/10/09 11:15:20;;;;;;;0.75;0.75;;;;;;;;;;5031481;28;20042;-41
2022/10/09 11:17:45;;;;;;;6.32;2.00;;;;;;;;;;5031885;28;20075;-41
2022/10/09 11:20:41;;;;;;;2.25;1.45;;;;;;;;;;5031810;28;20021;-41
2022/10/09 11:23:18;;;;;;;1.90;1.30;;;;;;;;;;5031513;28;20032;-42
2022/10/09 11:25:49;;;;;;;2.10;1.15;;;;;;;;;;5031756;28;20053;-43
2022/10/09 11:28:16;;;;;;;1.67;1.27;;;;;;;;;;5031696;28;20018;-41
2022/10/09 11:31:02;;;;;;;1.10;1.00;;;;;;;;;;5031607;28;20057;-41
2022/10/09 11:33:47;;;;;;;1.83;1.23;;;;;;;;;;5030652;28;20452;-43
2022/10/09 11:36:24;;;;;;;3.13;1.73;;;;;;;;;;5031316;28;20045;-41
2022/10/09 11:38:51;;;;;;;3.78;2.08;;;;;;;;;;5031575;28;20124;-41
2022/10/09 11:41:17;;;;;;;1.70;1.48;;;;;;;;;;5031552;28;20029;-41
2022/10/09 11:43:51;;;;;;;2.53;1.58;;;;;;;;;;5031131;28;20099;-41
2022/10/09 11:46:17;;;;;;;3.05;1.60;;;;;;;;;;5031307;28;20442;-41
2022/10/09 11:48:43;;;;;;;6.57;1.70;;;;;;;;;;5031102;28;20045;-41
2022/10/09 11:51:24;;;;;;;2.13;1.75;;;;;;;;;;5031290;28;20092;-41
2022/10/09 11:53:51;;;;;;;4.45;2.28;;;;;;;;;;5031179;28;20044;-41
2022/10/09 11:56:24;;;;;;;5.20;1.50;;;;;;;;;;5032633;28;20041;-41
2022/10/09 11:59:00;;;;;;;1.70;1.17;;;;;;;;;;5035299;28;20388;-41
2022/10/09 12:01:30;;;;;;;4.60;1.70;;;;;;;;;;5035062;28;20037;-42
2022/10/09 12:04:18;;;;;;;2.13;1.92;;;;;;;;;;5035093;28;20021;-40
2022/10/09 12:06:46;;;;;;;2.17;1.98;;;;;;;;;;5022058;28;20038;-41
2022/10/09 12:09:18;;;;;;;7.78;1.52;;;;;;;;;;5035043;28;20047;-40
2022/10/09 12:11:52;;;;;;;1.92;1.60;;;;;;;;;;5034847;28;20076;-41
2022/10/09 12:14:23;;;;;;;4.15;3.05;;;;;;;;;;5034934;28;20500;-41
2022/10/09 12:16:48;;;;;;;4.40;1.90;;;;;;;;;;5035097;28;20125;-41
2022/10/09 12:19:17;;;;;;;2.15;1.92;;;;;;;;;;5035136;28;20104;-41
2022/10/09 12:22:01;;;;;;;1.77;1.30;;;;;;;;;;5034736;28;20042;-41
2022/10/09 12:24:47;;;;;;;1.80;1.70;;;;;;;;;;5034580;28;20052;-41
2022/10/09 12:27:26;;;;;;;3.33;1.95;;;;;;;;;;5034048;28;20068;-41
2022/10/09 12:30:03;;;;;;;1.48;1.13;;;;;;;;;;5034686;28;20548;-40
2022/10/09 12:32:31;;;;;;;1.83;1.58;;;;;;;;;;5034402;28;20038;-41
2022/10/09 12:34:57;;;;;;;37.42;2.97;;;;;;;;;;5034571;28;20156;-41
2022/10/09 12:37:30;;;;;;;1.10;1.08;;;;;;;;;;5034301;28;20120;-41
2022/10/09 12:40:05;;;;;;;4.18;2.38;;;;;;;;;;5034338;28;20447;-41
2022/10/09 12:42:31;;;;;;;4.53;2.08;;;;;;;;;;5034584;28;20603;-41
2022/10/09 12:44:57;;;;;;;2.20;1.33;;;;;;;;;;5034309;28;20075;-41
2022/10/09 12:47:25;;;;;;;4.55;2.38;;;;;;;;;;5034217;28;20167;-41
2022/10/09 12:49:55;;;;;;;4.13;2.90;;;;;;;;;;5034275;28;20376;-41
2022/10/09 12:52:21;;;;;;;3.25;2.17;;;;;;;;;;5034115;28;20055;-41
2022/10/09 12:54:46;;;;;;;4.45;2.20;;;;;;;;;;5034141;28;20419;-41
2022/10/09 12:57:13;;;;;;;3.92;2.03;;;;;;;;;;5034423;28;20112;-41
2022/10/09 12:59:39;;;;;;;14.52;3.67;;;;;;;;;;5034235;28;20029;-41
2022/10/09 13:02:09;;;;;;;3.35;2.28;;;;;;;;;;5034003;28;20454;-41
2022/10/09 13:04:34;;;;;;;2.38;1.98;;;;;;;;;;5033930;28;20032;-41
2022/10/09 13:07:20;;;;;;;5.80;2.38;;;;;;;;;;5033569;28;20041;-42
2022/10/09 13:09:45;;;;;;;3.78;2.90;;;;;;;;;;5033239;28;20038;-41
2022/10/09 13:12:22;;;;;;;2.85;2.30;;;;;;;;;;5033788;28;20043;-43
2022/10/09 13:14:50;;;;;;;4.03;2.40;;;;;;;;;;5033904;28;20610;-41
2022/10/09 13:17:25;;;;;;;5.45;2.22;;;;;;;;;;5016350;28;20044;-41
2022/10/09 13:19:54;;;;;;;3.97;1.73;;;;;;;;;;5033723;28;20834;-41
2022/10/09 13:22:20;;;;;;;2.72;2.50;;;;;;;;;;5033576;28;20076;-41
2022/10/09 13:24:48;;;;;;;2.47;2.15;;;;;;;;;;5033888;28;20388;-41
2022/10/09 13:27:14;;;;;;;3.38;1.98;;;;;;;;;;5033591;28;20108;-41
2022/10/09 13:29:40;;;;;;;4.00;1.95;;;;;;;;;;5033603;28;20128;-41
2022/10/09 13:32:07;;;;;;;3.88;1.83;;;;;;;;;;5033663;28;20353;-41
2022/10/09 13:34:33;;;;;;;2.17;1.60;;;;;;;;;;5033325;28;20025;-41
2022/10/09 13:36:58;;;;;;;6.32;2.65;;;;;;;;;;5033114;28;20049;-42
2022/10/09 13:39:24;;;;;;;4.05;2.25;;;;;;;;;;5033267;28;20021;-41
2022/10/09 13:41:54;;;;;;;2.28;1.88;;;;;;;;;;5033332;28;20079;-41
2022/10/09 13:44:19;;;;;;;3.13;1.77;;;;;;;;;;5033190;28;20025;-41
2022/10/09 13:46:44;;;;;;;3.28;2.13;;;;;;;;;;5033428;28;20021;-41
2022/10/09 13:49:10;;;;;;;6.30;2.22;;;;;;;;;;5033364;28;20057;-41
2022/10/09 13:51:35;;;;;;;3.95;2.10;;;;;;;;;;5033353;28;20036;-41
2022/10/09 13:54:01;;;;;;;4.32;3.30;;;;;;;;;;5033504;28;20033;-42
2022/10/09 13:56:27;;;;;;;3.55;1.95;;;;;;;;;;5032748;28;20044;-41
2022/10/09 13:58:53;;;;;;;4.15;2.38;;;;;;;;;;5033003;28;20033;-41
2022/10/09 14:01:18;;;;;;;2.60;2.25;;;;;;;;;;5032944;28;20049;-42
2022/10/09 14:03:43;;;;;;;4.38;1.58;;;;;;;;;;5032985;28;20116;-41
2022/10/09 14:06:09;;;;;;;3.63;1.83;;;;;;;;;;5032816;28;20018;-41
2022/10/09 14:08:34;;;;;;;7.38;2.22;;;;;;;;;;5032672;28;20107;-41
2022/10/09 14:11:00;;;;;;;3.30;2.00;;;;;;;;;;5032977;28;20022;-41
2022/10/09 14:13:26;;;;;;;1.55;1.25;;;;;;;;;;5032827;28;20475;-41
2022/10/09 14:15:52;;;;;;;3.17;1.60;;;;;;;;;;5032651;28;20540;-41
2022/10/09 14:18:18;;;;;;;2.95;1.85;;;;;;;;;;5032734;28;20051;-40
2022/10/09 14:20:43;;;;;;;2.28;1.35;;;;;;;;;;5033047;28;20029;-41
2022/10/09 14:23:09;;;;;;;1.90;1.38;;;;;;;;;;5032499;28;20487;-41
2022/10/09 14:25:34;;;;;;;7.05;1.83;;;;;;;;;;5032340;28;20518;-41
2022/10/09 14:28:00;;;;;;;2.83;1.40;;;;;;;;;;5032659;28;20029;-41
2022/10/09 14:30:25;;;;;;;2.53;1.77;;;;;;;;;;5032291;28;20490;-41
2022/10/09 14:32:51;;;;;;;2.72;1.17;;;;;;;;;;5032204;28;20110;-42
2022/10/09 14:35:16;;;;;;;2.72;2.10;;;;;;;;;;5032268;28;20030;-41
2022/10/09 14:37:41;;;;;;;3.03;1.90;;;;;;;;;;5032121;28;20132;-41
2022/10/09 14:40:07;;;;;;;3.05;1.85;;;;;;;;;;5032419;28;20378;-41
2022/10/09 14:42:32;;;;;;;4.07;1.67;;;;;;;;;;5032309;28;20033;-41
2022/10/09 14:44:58;;;;;;;1.67;1.15;;;;;;;;;;5032153;28;20052;-41
2022/10/09 14:47:23;;;;;;;5.32;2.20;;;;;;;;;;5032195;28;20090;-41